sensor_id;sensor_type;location;lat;lon;timestamp;pressure;altitude;pressure_sealevel;temperature;humidity
75996;BME280;64681;49.738;9.004;2023-05-09T00:02:01;99789.28;;;14.28;81.86
75996;BME280;64681;49.738;9.004;2023-05-09T00:04:27;99783.72;;;14.21;82.07
75996;BME280;64681;49.738;9.004;2023-05-09T00:06:53;99776.09;;;14.23;82.58
75996;BME280;64681;49.738;9.004;2023-05-09T00:09:19;99778.28;;;14.33;81.79
75996;BME280;64681;49.738;9.004;2023-05-09T00:11:44;99785.06;;;14.43;81.67
75996;BME280;64681;49.738;9.004;2023-05-09T00:14:10;99783.16;;;14.44;81.91
75996;BME280;64681;49.738;9.004;2023-05-09T00:16:38;99781.00;;;14.49;82.15
75996;BME280;64681;49.738;9.004;2023-05-09T00:19:04;99778.41;;;14.53;81.72
75996;BME280;64681;49.738;9.004;2023-05-09T00:21:31;99771.38;;;14.48;81.97
75996;BME280;64681;49.738;9.004;2023-05-09T00:23:57;99764.53;;;14.51;81.57
75996;BME280;64681;49.738;9.004;2023-05-09T00:26:23;99765.22;;;14.48;81.53
75996;BME280;64681;49.738;9.004;2023-05-09T00:28:48;99756.63;;;14.42;82.11
75996;BME280;64681;49.738;9.004;2023-05-09T00:31:14;99747.19;;;14.32;81.86
75996;BME280;64681;49.738;9.004;2023-05-09T00:33:39;99758.34;;;14.34;81.25
75996;BME280;64681;49.738;9.004;2023-05-09T00:36:05;99745.09;;;14.25;81.94
75996;BME280;64681;49.738;9.004;2023-05-09T00:38:31;99752.88;;;14.31;81.60
75996;BME280;64681;49.738;9.004;2023-05-09T00:40:57;99749.53;;;14.34;81.59
75996;BME280;64681;49.738;9.004;2023-05-09T00:43:22;99755.06;;;14.25;81.65
75996;BME280;64681;49.738;9.004;2023-05-09T00:45:48;99734.75;;;14.12;81.83
75996;BME280;64681;49.738;9.004;2023-05-09T00:48:15;99730.19;;;14.12;82.11
75996;BME280;64681;49.738;9.004;2023-05-09T00:50:41;99739.19;;;14.20;81.80
75996;BME280;64681;49.738;9.004;2023-05-09T00:53:08;99749.16;;;14.19;82.09
75996;BME280;64681;49.738;9.004;2023-05-09T00:55:36;99724.09;;;14.15;81.64
75996;BME280;64681;49.738;9.004;2023-05-09T00:58:02;99742.75;;;14.24;81.63
75996;BME280;64681;49.738;9.004;2023-05-09T01:00:28;99743.16;;;14.26;81.84
75996;BME280;64681;49.738;9.004;2023-05-09T01:02:55;99746.38;;;14.32;81.55
75996;BME280;64681;49.738;9.004;2023-05-09T01:05:26;99732.69;;;14.37;81.20
75996;BME280;64681;49.738;9.004;2023-05-09T01:08:06;99733.22;;;14.43;81.05
75996;BME280;64681;49.738;9.004;2023-05-09T01:11:02;99730.22;;;14.44;81.19
75996;BME280;64681;49.738;9.004;2023-05-09T01:21:55;99723.88;;;14.36;81.21
75996;BME280;64681;49.738;9.004;2023-05-09T01:27:46;99715.09;;;14.23;81.48
75996;BME280;64681;49.738;9.004;2023-05-09T01:30:15;99704.53;;;14.31;80.88
75996;BME280;64681;49.738;9.004;2023-05-09T01:32:42;99704.03;;;14.25;81.45
75996;BME280;64681;49.738;9.004;2023-05-09T01:35:12;99704.97;;;14.33;81.24
75996;BME280;64681;49.738;9.004;2023-05-09T01:37:42;99717.28;;;14.34;80.80
75996;BME280;64681;49.738;9.004;2023-05-09T01:40:14;99705.47;;;14.22;80.71
75996;BME280;64681;49.738;9.004;2023-05-09T01:42:56;99706.28;;;14.23;80.67
75996;BME280;64681;49.738;9.004;2023-05-09T01:45:24;99697.94;;;14.12;81.09
75996;BME280;64681;49.738;9.004;2023-05-09T01:47:53;99695.94;;;13.93;81.13
75996;BME280;64681;49.738;9.004;2023-05-09T01:50:20;99711.69;;;13.95;81.58
75996;BME280;64681;49.738;9.004;2023-05-09T01:52:48;99708.16;;;13.90;81.73
75996;BME280;64681;49.738;9.004;2023-05-09T01:55:18;99708.97;;;13.79;82.47
75996;BME280;64681;49.738;9.004;2023-05-09T01:57:47;99715.47;;;13.77;82.82
75996;BME280;64681;49.738;9.004;2023-05-09T02:00:14;99711.84;;;13.86;82.60
75996;BME280;64681;49.738;9.004;2023-05-09T02:02:41;99703.34;;;13.84;82.30
75996;BME280;64681;49.738;9.004;2023-05-09T02:05:11;99714.19;;;13.87;82.25
75996;BME280;64681;49.738;9.004;2023-05-09T02:07:40;99718.97;;;13.94;82.15
75996;BME280;64681;49.738;9.004;2023-05-09T02:10:08;99695.56;;;13.79;82.44
75996;BME280;64681;49.738;9.004;2023-05-09T02:12:35;99703.00;;;13.85;82.60
75996;BME280;64681;49.738;9.004;2023-05-09T02:15:00;99685.13;;;13.61;83.37
75996;BME280;64681;49.738;9.004;2023-05-09T02:17:26;99674.66;;;13.43;83.44
75996;BME280;64681;49.738;9.004;2023-05-09T02:19:54;99660.69;;;13.50;83.03
75996;BME280;64681;49.738;9.004;2023-05-09T02:22:19;99667.44;;;13.60;82.08
75996;BME280;64681;49.738;9.004;2023-05-09T02:24:45;99677.50;;;13.63;81.83
75996;BME280;64681;49.738;9.004;2023-05-09T02:27:13;99679.00;;;13.48;81.60
75996;BME280;64681;49.738;9.004;2023-05-09T02:30:02;99666.50;;;12.99;83.69
75996;BME280;64681;49.738;9.004;2023-05-09T02:32:33;99679.44;;;13.09;84.10
75996;BME280;64681;49.738;9.004;2023-05-09T02:35:02;99678.03;;;13.28;83.20
75996;BME280;64681;49.738;9.004;2023-05-09T02:37:29;99678.66;;;13.09;83.87
75996;BME280;64681;49.738;9.004;2023-05-09T02:39:55;99686.69;;;13.09;84.84
75996;BME280;64681;49.738;9.004;2023-05-09T02:42:22;99681.53;;;13.16;84.70
75996;BME280;64681;49.738;9.004;2023-05-09T02:44:53;99678.94;;;13.32;84.27
75996;BME280;64681;49.738;9.004;2023-05-09T02:47:19;99689.06;;;13.51;84.13
75996;BME280;64681;49.738;9.004;2023-05-09T02:49:45;99672.53;;;13.49;84.03
75996;BME280;64681;49.738;9.004;2023-05-09T02:52:10;99671.53;;;13.70;83.83
75996;BME280;64681;49.738;9.004;2023-05-09T02:54:37;99680.50;;;13.90;83.04
75996;BME280;64681;49.738;9.004;2023-05-09T02:57:03;99672.19;;;13.95;82.90
75996;BME280;64681;49.738;9.004;2023-05-09T02:59:29;99650.50;;;13.72;83.07
75996;BME280;64681;49.738;9.004;2023-05-09T03:01:55;99664.22;;;13.83;83.32
75996;BME280;64681;49.738;9.004;2023-05-09T03:04:21;99666.22;;;13.86;83.39
75996;BME280;64681;49.738;9.004;2023-05-09T03:06:47;99665.59;;;13.76;83.38
75996;BME280;64681;49.738;9.004;2023-05-09T03:09:12;99661.19;;;13.84;82.96
75996;BME280;64681;49.738;9.004;2023-05-09T03:11:38;99638.75;;;13.76;82.77
75996;BME280;64681;49.738;9.004;2023-05-09T03:14:04;99661.81;;;13.93;82.34
75996;BME280;64681;49.738;9.004;2023-05-09T03:16:30;99654.09;;;13.92;81.64
75996;BME280;64681;49.738;9.004;2023-05-09T03:18:56;99657.41;;;14.01;81.86
75996;BME280;64681;49.738;9.004;2023-05-09T03:21:21;99669.84;;;13.93;81.94
75996;BME280;64681;49.738;9.004;2023-05-09T03:23:47;99659.91;;;13.94;82.00
75996;BME280;64681;49.738;9.004;2023-05-09T03:26:13;99667.25;;;13.81;82.39
75996;BME280;64681;49.738;9.004;2023-05-09T03:28:39;99647.34;;;13.82;82.08
75996;BME280;64681;49.738;9.004;2023-05-09T03:31:04;99642.56;;;13.91;81.84
75996;BME280;64681;49.738;9.004;2023-05-09T03:33:30;99648.81;;;13.96;82.04
75996;BME280;64681;49.738;9.004;2023-05-09T03:35:56;99644.94;;;13.93;81.87
75996;BME280;64681;49.738;9.004;2023-05-09T03:38:21;99641.13;;;13.94;81.69
75996;BME280;64681;49.738;9.004;2023-05-09T03:40:49;99641.53;;;13.96;81.67
75996;BME280;64681;49.738;9.004;2023-05-09T03:43:16;99634.94;;;13.93;81.60
75996;BME280;64681;49.738;9.004;2023-05-09T03:45:42;99639.56;;;13.93;81.52
75996;BME280;64681;49.738;9.004;2023-05-09T03:48:08;99635.03;;;13.97;81.34
75996;BME280;64681;49.738;9.004;2023-05-09T03:50:34;99636.78;;;14.05;81.10
75996;BME280;64681;49.738;9.004;2023-05-09T03:53:00;99637.47;;;14.02;80.93
75996;BME280;64681;49.738;9.004;2023-05-09T03:55:26;99629.06;;;13.88;80.99
75996;BME280;64681;49.738;9.004;2023-05-09T03:57:53;99632.44;;;13.85;81.39
75996;BME280;64681;49.738;9.004;2023-05-09T04:00:20;99637.28;;;13.95;81.26
75996;BME280;64681;49.738;9.004;2023-05-09T04:02:48;99639.69;;;13.68;81.49
75996;BME280;64681;49.738;9.004;2023-05-09T04:05:14;99631.31;;;13.86;81.53
75996;BME280;64681;49.738;9.004;2023-05-09T04:07:40;99627.97;;;14.05;80.38
75996;BME280;64681;49.738;9.004;2023-05-09T04:10:06;99626.75;;;14.18;80.25
75996;BME280;64681;49.738;9.004;2023-05-09T04:12:32;99625.69;;;14.23;80.62
75996;BME280;64681;49.738;9.004;2023-05-09T04:14:58;99618.25;;;14.32;80.03
75996;BME280;64681;49.738;9.004;2023-05-09T04:17:24;99625.16;;;14.49;79.91
75996;BME280;64681;49.738;9.004;2023-05-09T04:19:49;99611.19;;;14.44;79.61
75996;BME280;64681;49.738;9.004;2023-05-09T04:22:15;99635.78;;;14.62;79.27
75996;BME280;64681;49.738;9.004;2023-05-09T04:24:41;99630.66;;;14.72;78.34
75996;BME280;64681;49.738;9.004;2023-05-09T04:27:06;99632.94;;;14.70;78.70
75996;BME280;64681;49.738;9.004;2023-05-09T04:29:32;99627.22;;;14.92;78.52
75996;BME280;64681;49.738;9.004;2023-05-09T04:31:59;99616.69;;;15.02;77.74
75996;BME280;64681;49.738;9.004;2023-05-09T04:34:26;99626.75;;;15.25;76.75
75996;BME280;64681;49.738;9.004;2023-05-09T04:36:52;99608.13;;;15.16;76.39
75996;BME280;64681;49.738;9.004;2023-05-09T04:39:18;99634.88;;;15.48;75.73
75996;BME280;64681;49.738;9.004;2023-05-09T04:41:44;99640.75;;;15.54;75.96
75996;BME280;64681;49.738;9.004;2023-05-09T04:44:15;99633.66;;;15.65;75.53
75996;BME280;64681;49.738;9.004;2023-05-09T04:46:41;99640.72;;;15.74;74.41
75996;BME280;64681;49.738;9.004;2023-05-09T04:49:07;99620.69;;;15.71;74.82
75996;BME280;64681;49.738;9.004;2023-05-09T04:51:33;99626.78;;;15.88;74.17
75996;BME280;64681;49.738;9.004;2023-05-09T04:53:59;99624.75;;;15.61;74.06
75996;BME280;64681;49.738;9.004;2023-05-09T04:56:24;99619.75;;;15.63;74.16
75996;BME280;64681;49.738;9.004;2023-05-09T04:58:50;99631.13;;;15.53;74.73
75996;BME280;64681;49.738;9.004;2023-05-09T05:01:17;99615.81;;;15.57;74.98
75996;BME280;64681;49.738;9.004;2023-05-09T05:03:43;99603.25;;;15.85;73.11
75996;BME280;64681;49.738;9.004;2023-05-09T05:06:08;99594.13;;;15.93;73.26
75996;BME280;64681;49.738;9.004;2023-05-09T05:08:34;99596.66;;;16.05;73.46
75996;BME280;64681;49.738;9.004;2023-05-09T05:11:00;99601.19;;;16.24;72.94
75996;BME280;64681;49.738;9.004;2023-05-09T05:13:25;99582.94;;;16.41;72.48
75996;BME280;64681;49.738;9.004;2023-05-09T05:15:51;99593.84;;;16.78;72.04
75996;BME280;64681;49.738;9.004;2023-05-09T05:18:17;99590.00;;;17.10;71.03
75996;BME280;64681;49.738;9.004;2023-05-09T05:20:42;99585.97;;;17.27;69.98
75996;BME280;64681;49.738;9.004;2023-05-09T05:23:09;99590.06;;;17.51;68.95
75996;BME280;64681;49.738;9.004;2023-05-09T05:25:35;99601.19;;;17.91;69.02
75996;BME280;64681;49.738;9.004;2023-05-09T05:28:00;99588.38;;;18.29;68.19
75996;BME280;64681;49.738;9.004;2023-05-09T05:30:26;99595.66;;;18.88;65.65
75996;BME280;64681;49.738;9.004;2023-05-09T05:32:52;99582.72;;;19.44;63.72
75996;BME280;64681;49.738;9.004;2023-05-09T05:35:17;99578.06;;;19.74;62.44
75996;BME280;64681;49.738;9.004;2023-05-09T05:37:43;99591.28;;;19.93;62.86
75996;BME280;64681;49.738;9.004;2023-05-09T05:40:09;99585.47;;;20.02;62.75
75996;BME280;64681;49.738;9.004;2023-05-09T05:42:35;99585.06;;;20.22;61.71
75996;BME280;64681;49.738;9.004;2023-05-09T05:45:01;99567.63;;;20.30;60.79
75996;BME280;64681;49.738;9.004;2023-05-09T05:47:34;99576.81;;;20.65;59.65
75996;BME280;64681;49.738;9.004;2023-05-09T05:50:02;99581.03;;;20.84;59.35
75996;BME280;64681;49.738;9.004;2023-05-09T05:52:28;99569.41;;;20.91;59.72
75996;BME280;64681;49.738;9.004;2023-05-09T05:54:54;99574.06;;;20.87;60.34
75996;BME280;64681;49.738;9.004;2023-05-09T05:57:21;99573.69;;;20.81;60.87
75996;BME280;64681;49.738;9.004;2023-05-09T05:59:47;99567.13;;;20.64;61.32
75996;BME280;64681;49.738;9.004;2023-05-09T06:02:13;99556.38;;;20.32;61.48
75996;BME280;64681;49.738;9.004;2023-05-09T06:04:40;99571.53;;;20.07;62.20
75996;BME280;64681;49.738;9.004;2023-05-09T06:07:05;99573.47;;;19.89;63.05
75996;BME280;64681;49.738;9.004;2023-05-09T06:09:31;99564.94;;;19.83;63.03
75996;BME280;64681;49.738;9.004;2023-05-09T06:11:57;99568.44;;;19.80;62.97
75996;BME280;64681;49.738;9.004;2023-05-09T06:14:23;99559.09;;;19.56;63.74
75996;BME280;64681;49.738;9.004;2023-05-09T06:16:48;99573.06;;;19.65;63.48
75996;BME280;64681;49.738;9.004;2023-05-09T06:19:14;99570.34;;;19.54;64.10
75996;BME280;64681;49.738;9.004;2023-05-09T06:21:39;99572.66;;;19.52;63.70
75996;BME280;64681;49.738;9.004;2023-05-09T06:24:05;99518.03;;;19.00;63.76
75996;BME280;64681;49.738;9.004;2023-05-09T06:26:31;99561.72;;;19.02;64.29
75996;BME280;64681;49.738;9.004;2023-05-09T06:28:57;99561.72;;;19.05;64.98
75996;BME280;64681;49.738;9.004;2023-05-09T06:31:22;99569.13;;;19.16;65.25
75996;BME280;64681;49.738;9.004;2023-05-09T06:33:48;99557.13;;;19.31;65.26
75996;BME280;64681;49.738;9.004;2023-05-09T06:36:13;99556.78;;;19.43;65.20
75996;BME280;64681;49.738;9.004;2023-05-09T06:38:40;99551.78;;;19.53;65.18
75996;BME280;64681;49.738;9.004;2023-05-09T06:41:08;99547.91;;;19.57;64.96
75996;BME280;64681;49.738;9.004;2023-05-09T06:43:34;99534.38;;;19.54;64.86
75996;BME280;64681;49.738;9.004;2023-05-09T06:45:59;99538.63;;;19.76;65.00
75996;BME280;64681;49.738;9.004;2023-05-09T06:48:25;99533.19;;;19.84;64.21
75996;BME280;64681;49.738;9.004;2023-05-09T06:50:51;99550.22;;;19.99;63.96
75996;BME280;64681;49.738;9.004;2023-05-09T06:53:16;99530.09;;;20.07;63.67
75996;BME280;64681;49.738;9.004;2023-05-09T06:55:43;99518.81;;;20.23;62.91
75996;BME280;64681;49.738;9.004;2023-05-09T06:58:11;99529.59;;;20.48;62.47
75996;BME280;64681;49.738;9.004;2023-05-09T07:00:37;99503.25;;;20.45;61.91
75996;BME280;64681;49.738;9.004;2023-05-09T07:03:02;99512.81;;;20.79;61.69
75996;BME280;64681;49.738;9.004;2023-05-09T07:05:28;99521.56;;;21.12;60.92
75996;BME280;64681;49.738;9.004;2023-05-09T07:07:54;99510.09;;;21.42;59.44
75996;BME280;64681;49.738;9.004;2023-05-09T07:10:20;99506.72;;;21.80;57.66
75996;BME280;64681;49.738;9.004;2023-05-09T07:12:48;99504.38;;;22.20;55.31
75996;BME280;64681;49.738;9.004;2023-05-09T07:15:15;99514.94;;;22.11;56.56
75996;BME280;64681;49.738;9.004;2023-05-09T07:17:40;99518.25;;;22.29;57.50
75996;BME280;64681;49.738;9.004;2023-05-09T07:20:06;99509.13;;;22.47;57.29
75996;BME280;64681;49.738;9.004;2023-05-09T07:22:32;99506.38;;;22.51;56.24
75996;BME280;64681;49.738;9.004;2023-05-09T07:24:58;99508.38;;;22.47;55.61
75996;BME280;64681;49.738;9.004;2023-05-09T07:27:24;99503.25;;;22.52;56.33
75996;BME280;64681;49.738;9.004;2023-05-09T07:29:49;99497.13;;;22.75;55.80
75996;BME280;64681;49.738;9.004;2023-05-09T07:32:17;99477.31;;;23.02;55.21
75996;BME280;64681;49.738;9.004;2023-05-09T07:34:43;99478.50;;;23.29;54.13
75996;BME280;64681;49.738;9.004;2023-05-09T07:37:09;99485.75;;;23.35;53.50
75996;BME280;64681;49.738;9.004;2023-05-09T07:39:34;99488.44;;;23.63;53.68
75996;BME280;64681;49.738;9.004;2023-05-09T07:42:00;99471.69;;;23.84;53.58
75996;BME280;64681;49.738;9.004;2023-05-09T07:44:26;99461.31;;;23.99;50.63
75996;BME280;64681;49.738;9.004;2023-05-09T07:46:51;99467.09;;;23.81;51.50
75996;BME280;64681;49.738;9.004;2023-05-09T07:49:22;99477.66;;;23.55;52.36
75996;BME280;64681;49.738;9.004;2023-05-09T07:51:48;99468.06;;;23.91;51.39
75996;BME280;64681;49.738;9.004;2023-05-09T07:54:13;99468.34;;;24.37;51.47
75996;BME280;64681;49.738;9.004;2023-05-09T07:56:39;99466.38;;;24.58;50.76
75996;BME280;64681;49.738;9.004;2023-05-09T07:59:04;99453.28;;;24.49;50.69
75996;BME280;64681;49.738;9.004;2023-05-09T08:01:30;99466.28;;;24.81;49.92
75996;BME280;64681;49.738;9.004;2023-05-09T08:03:55;99452.38;;;24.56;50.57
75996;BME280;64681;49.738;9.004;2023-05-09T08:06:21;99446.34;;;24.28;51.36
75996;BME280;64681;49.738;9.004;2023-05-09T08:08:47;99450.56;;;24.49;51.14
75996;BME280;64681;49.738;9.004;2023-05-09T08:11:13;99450.31;;;24.43;51.39
75996;BME280;64681;49.738;9.004;2023-05-09T08:13:38;99441.44;;;24.19;51.57
75996;BME280;64681;49.738;9.004;2023-05-09T08:16:04;99454.25;;;24.22;51.45
75996;BME280;64681;49.738;9.004;2023-05-09T08:18:30;99447.19;;;24.05;51.59
75996;BME280;64681;49.738;9.004;2023-05-09T08:20:55;99456.41;;;23.91;52.35
75996;BME280;64681;49.738;9.004;2023-05-09T08:23:22;99453.84;;;23.60;51.91
75996;BME280;64681;49.738;9.004;2023-05-09T08:25:54;99434.41;;;21.86;55.90
75996;BME280;64681;49.738;9.004;2023-05-09T08:28:21;99434.66;;;21.99;56.57
75996;BME280;64681;49.738;9.004;2023-05-09T08:30:51;99441.22;;;22.36;55.66
75996;BME280;64681;49.738;9.004;2023-05-09T08:33:17;99430.75;;;22.35;55.59
75996;BME280;64681;49.738;9.004;2023-05-09T08:35:43;99435.38;;;22.03;56.19
75996;BME280;64681;49.738;9.004;2023-05-09T08:38:09;99428.84;;;22.32;54.96
75996;BME280;64681;49.738;9.004;2023-05-09T08:40:35;99430.59;;;22.49;55.19
75996;BME280;64681;49.738;9.004;2023-05-09T08:43:06;99408.63;;;22.64;54.77
75996;BME280;64681;49.738;9.004;2023-05-09T08:45:35;99416.56;;;22.78;54.59
75996;BME280;64681;49.738;9.004;2023-05-09T08:48:05;99424.56;;;22.00;56.30
75996;BME280;64681;49.738;9.004;2023-05-09T08:50:31;99426.25;;;21.86;56.10
75996;BME280;64681;49.738;9.004;2023-05-09T08:52:57;99426.25;;;21.44;57.35
75996;BME280;64681;49.738;9.004;2023-05-09T08:55:23;99393.91;;;21.61;57.56
75996;BME280;64681;49.738;9.004;2023-05-09T08:57:51;99400.19;;;22.54;54.21
75996;BME280;64681;49.738;9.004;2023-05-09T09:00:18;99395.09;;;22.84;52.88
75996;BME280;64681;49.738;9.004;2023-05-09T09:02:46;99415.03;;;23.52;51.99
75996;BME280;64681;49.738;9.004;2023-05-09T09:05:12;99385.28;;;23.14;51.66
75996;BME280;64681;49.738;9.004;2023-05-09T09:07:39;99386.41;;;23.40;51.63
75996;BME280;64681;49.738;9.004;2023-05-09T09:10:06;99414.78;;;22.37;54.61
75996;BME280;64681;49.738;9.004;2023-05-09T09:12:33;99408.81;;;22.76;53.66
75996;BME280;64681;49.738;9.004;2023-05-09T09:15:03;99408.03;;;23.27;52.06
75996;BME280;64681;49.738;9.004;2023-05-09T09:17:32;99407.50;;;23.60;52.21
75996;BME280;64681;49.738;9.004;2023-05-09T09:20:00;99401.44;;;23.92;51.25
75996;BME280;64681;49.738;9.004;2023-05-09T09:22:32;99391.78;;;24.08;49.92
75996;BME280;64681;49.738;9.004;2023-05-09T09:24:59;99401.53;;;23.45;51.60
75996;BME280;64681;49.738;9.004;2023-05-09T09:27:27;99401.13;;;23.66;51.65
75996;BME280;64681;49.738;9.004;2023-05-09T09:29:52;99393.75;;;21.75;56.82
75996;BME280;64681;49.738;9.004;2023-05-09T09:32:18;99380.75;;;21.59;57.72
75996;BME280;64681;49.738;9.004;2023-05-09T09:34:48;99384.88;;;22.06;56.20
75996;BME280;64681;49.738;9.004;2023-05-09T09:37:22;99389.09;;;21.76;56.48
75996;BME280;64681;49.738;9.004;2023-05-09T09:39:56;99378.88;;;22.49;54.18
75996;BME280;64681;49.738;9.004;2023-05-09T09:42:22;99372.88;;;22.61;55.08
75996;BME280;64681;49.738;9.004;2023-05-09T09:45:12;99373.31;;;22.84;53.35
75996;BME280;64681;49.738;9.004;2023-05-09T09:47:39;99365.78;;;23.15;53.97
75996;BME280;64681;49.738;9.004;2023-05-09T09:50:31;99358.44;;;23.60;52.63
75996;BME280;64681;49.738;9.004;2023-05-09T09:52:57;99350.16;;;23.83;51.43
75996;BME280;64681;49.738;9.004;2023-05-09T09:55:25;99341.34;;;24.16;50.63
75996;BME280;64681;49.738;9.004;2023-05-09T09:57:51;99352.91;;;24.57;48.98
75996;BME280;64681;49.738;9.004;2023-05-09T10:00:35;99336.41;;;25.10;48.46
75996;BME280;64681;49.738;9.004;2023-05-09T10:03:00;99341.38;;;24.49;49.01
75996;BME280;64681;49.738;9.004;2023-05-09T10:05:28;99345.47;;;24.41;49.61
75996;BME280;64681;49.738;9.004;2023-05-09T10:08:02;99301.56;;;24.68;49.03
75996;BME280;64681;49.738;9.004;2023-05-09T10:10:31;99339.53;;;24.79;49.05
75996;BME280;64681;49.738;9.004;2023-05-09T10:13:17;99328.00;;;25.63;46.83
75996;BME280;64681;49.738;9.004;2023-05-09T10:19:19;99315.06;;;25.21;47.03
75996;BME280;64681;49.738;9.004;2023-05-09T10:22:04;99314.94;;;24.79;47.97
75996;BME280;64681;49.738;9.004;2023-05-09T10:25:01;99304.75;;;25.42;47.26
75996;BME280;64681;49.738;9.004;2023-05-09T10:27:59;99302.72;;;26.14;45.82
75996;BME280;64681;49.738;9.004;2023-05-09T10:34:34;99296.78;;;26.29;44.61
75996;BME280;64681;49.738;9.004;2023-05-09T10:37:04;99273.22;;;26.92;43.19
75996;BME280;64681;49.738;9.004;2023-05-09T10:39:30;99279.78;;;26.95;44.66
75996;BME280;64681;49.738;9.004;2023-05-09T10:41:57;99278.63;;;27.18;43.73
75996;BME280;64681;49.738;9.004;2023-05-09T10:44:25;99273.34;;;27.24;42.61
75996;BME280;64681;49.738;9.004;2023-05-09T10:46:52;99274.38;;;26.82;44.30
75996;BME280;64681;49.738;9.004;2023-05-09T10:49:19;99268.50;;;26.45;43.41
75996;BME280;64681;49.738;9.004;2023-05-09T10:51:44;99266.66;;;26.42;43.22
75996;BME280;64681;49.738;9.004;2023-05-09T10:54:14;99260.72;;;26.56;44.61
75996;BME280;64681;49.738;9.004;2023-05-09T10:56:49;99251.91;;;26.26;43.06
75996;BME280;64681;49.738;9.004;2023-05-09T11:02:01;99229.78;;;25.95;46.42
75996;BME280;64681;49.738;9.004;2023-05-09T11:04:31;99224.97;;;26.25;44.62
75996;BME280;64681;49.738;9.004;2023-05-09T11:07:00;99217.81;;;26.40;43.34
75996;BME280;64681;49.738;9.004;2023-05-09T11:09:38;99222.38;;;26.56;44.07
75996;BME280;64681;49.738;9.004;2023-05-09T11:12:13;99216.44;;;26.22;45.72
75996;BME280;64681;49.738;9.004;2023-05-09T11:22:18;99199.88;;;27.18;42.08
75996;BME280;64681;49.738;9.004;2023-05-09T11:24:58;99198.72;;;27.29;43.26
75996;BME280;64681;49.738;9.004;2023-05-09T11:27:26;99192.38;;;27.10;42.69
75996;BME280;64681;49.738;9.004;2023-05-09T11:29:57;99187.63;;;27.10;42.56
75996;BME280;64681;49.738;9.004;2023-05-09T11:32:53;99178.00;;;27.28;42.05
75996;BME280;64681;49.738;9.004;2023-05-09T11:35:21;99179.00;;;27.43;41.79
75996;BME280;64681;49.738;9.004;2023-05-09T11:37:52;99156.13;;;27.37;40.44
75996;BME280;64681;49.738;9.004;2023-05-09T11:40:25;99149.41;;;27.70;40.20
75996;BME280;64681;49.738;9.004;2023-05-09T11:42:55;99161.78;;;27.84;41.72
75996;BME280;64681;49.738;9.004;2023-05-09T11:45:23;99149.84;;;28.18;41.13
75996;BME280;64681;49.738;9.004;2023-05-09T11:47:50;99147.69;;;28.22;38.09
75996;BME280;64681;49.738;9.004;2023-05-09T11:50:17;99144.97;;;26.78;40.32
75996;BME280;64681;49.738;9.004;2023-05-09T11:52:45;99140.94;;;26.69;41.19
75996;BME280;64681;49.738;9.004;2023-05-09T11:55:16;99140.06;;;25.76;42.48
75996;BME280;64681;49.738;9.004;2023-05-09T11:57:52;99127.69;;;26.11;41.95
75996;BME280;64681;49.738;9.004;2023-05-09T12:00:23;99130.78;;;25.61;42.89
75996;BME280;64681;49.738;9.004;2023-05-09T12:02:50;99126.94;;;25.33;43.73
75996;BME280;64681;49.738;9.004;2023-05-09T12:05:19;99122.13;;;25.88;44.15
75996;BME280;64681;49.738;9.004;2023-05-09T12:07:44;99113.97;;;26.23;43.22
75996;BME280;64681;49.738;9.004;2023-05-09T12:10:15;99116.47;;;26.53;41.50
75996;BME280;64681;49.738;9.004;2023-05-09T12:12:46;99112.84;;;26.78;42.10
75996;BME280;64681;49.738;9.004;2023-05-09T12:15:13;99109.69;;;26.80;41.67
75996;BME280;64681;49.738;9.004;2023-05-09T12:17:40;99101.88;;;26.78;40.61
75996;BME280;64681;49.738;9.004;2023-05-09T12:20:06;99100.47;;;25.17;43.57
75996;BME280;64681;49.738;9.004;2023-05-09T12:22:32;99097.41;;;25.79;42.67
75996;BME280;64681;49.738;9.004;2023-05-09T12:25:04;99083.00;;;26.14;44.27
75996;BME280;64681;49.738;9.004;2023-05-09T12:27:33;99074.88;;;26.23;42.23
75996;BME280;64681;49.738;9.004;2023-05-09T12:29:59;99070.50;;;24.74;43.73
75996;BME280;64681;49.738;9.004;2023-05-09T12:32:27;99084.31;;;25.61;42.99
75996;BME280;64681;49.738;9.004;2023-05-09T12:34:57;99084.53;;;25.67;43.37
75996;BME280;64681;49.738;9.004;2023-05-09T12:37:24;99070.81;;;25.80;44.05
75996;BME280;64681;49.738;9.004;2023-05-09T12:40:01;99068.56;;;25.26;42.97
75996;BME280;64681;49.738;9.004;2023-05-09T12:42:31;99075.88;;;25.68;42.89
75996;BME280;64681;49.738;9.004;2023-05-09T12:44:57;99054.63;;;25.85;41.55
75996;BME280;64681;49.738;9.004;2023-05-09T12:47:27;99053.91;;;26.29;41.54
75996;BME280;64681;49.738;9.004;2023-05-09T12:50:01;99052.19;;;26.67;41.41
75996;BME280;64681;49.738;9.004;2023-05-09T12:52:36;99047.75;;;27.23;38.54
75996;BME280;64681;49.738;9.004;2023-05-09T12:55:10;99044.72;;;26.90;39.32
75996;BME280;64681;49.738;9.004;2023-05-09T12:57:38;99035.97;;;27.04;41.25
75996;BME280;64681;49.738;9.004;2023-05-09T13:00:06;99042.59;;;27.25;40.71
75996;BME280;64681;49.738;9.004;2023-05-09T13:02:36;99026.56;;;27.14;39.66
75996;BME280;64681;49.738;9.004;2023-05-09T13:05:21;99023.72;;;27.27;37.71
75996;BME280;64681;49.738;9.004;2023-05-09T13:07:48;99015.94;;;27.26;38.74
75996;BME280;64681;49.738;9.004;2023-05-09T13:10:19;99012.66;;;27.49;38.50
75996;BME280;64681;49.738;9.004;2023-05-09T13:12:48;98990.59;;;27.62;37.17
75996;BME280;64681;49.738;9.004;2023-05-09T13:15:17;99007.13;;;27.31;39.72
75996;BME280;64681;49.738;9.004;2023-05-09T13:17:47;99003.06;;;27.45;40.51
75996;BME280;64681;49.738;9.004;2023-05-09T13:20:13;98985.97;;;27.41;37.71
75996;BME280;64681;49.738;9.004;2023-05-09T13:22:39;98968.63;;;26.84;39.60
75996;BME280;64681;49.738;9.004;2023-05-09T13:25:05;98974.06;;;26.21;40.53
75996;BME280;64681;49.738;9.004;2023-05-09T13:27:32;98978.81;;;25.12;42.61
75996;BME280;64681;49.738;9.004;2023-05-09T13:29:58;98971.47;;;24.57;43.43
75996;BME280;64681;49.738;9.004;2023-05-09T13:32:24;98962.41;;;24.47;42.72
75996;BME280;64681;49.738;9.004;2023-05-09T13:34:52;98962.53;;;25.21;41.84